Time;durP1;ratioP1;P1;durP2;ratioP2;P2;SDS_P1;SDS_P2;PMS_P1;PMS_P2;Temp;Humidity;BMP_temperature;BMP_pressure;BME280_temperature;BME280_humidity;BME280_pressure;Samples;Min_cycle;Max_cycle;Signal;HPM_P1;HPM_P2
2021/01/14 00:01:02;;;;;;;;;;;;;;;5.26;72.70;99808.94;4988951;28;19937;-86
2021/01/14 00:03:29;;;;;;;;;;;;;;;5.33;72.20;99814.19;4982960;28;20403;-88
2021/01/14 00:06:12;;;;;;;;;;;;;;;5.19;72.58;99812.28;4987621;28;19929;-86
2021/01/14 00:08:39;;;;;;;;;;;;;;;5.39;72.23;99817.78;4964793;28;19936;-87
2021/01/14 00:11:06;;;;;;;;;;;;;;;5.40;71.80;99809.16;4950763;28;19922;-84
2021/01/14 00:13:37;;;;;;;;;;;;;;;5.80;70.96;99809.72;4939627;28;19932;-87
2021/01/14 00:16:04;;;;;;;;;;;;;;;5.62;71.31;99797.38;4960490;28;19949;-85
2021/01/14 00:18:30;;;;;;;;;;;;;;;5.94;70.45;99795.25;4920182;28;20025;-85
2021/01/14 00:20:57;;;;;;;;;;;;;;;5.86;70.52;99799.41;4943451;28;20018;-85
2021/01/14 00:23:25;;;;;;;;;;;;;;;5.82;70.61;99792.44;4952862;28;19922;-81
2021/01/14 00:25:51;;;;;;;;;;;;;;;5.57;71.20;99786.94;4967082;28;19942;-86
2021/01/14 00:28:18;;;;;;;;;;;;;;;5.58;71.15;99783.50;4960836;28;19980;-86
2021/01/14 00:30:44;;;;;;;;;;;;;;;5.39;72.02;99786.69;4947396;28;19927;-85
2021/01/14 00:33:11;;;;;;;;;;;;;;;5.73;70.85;99780.25;4958099;28;20390;-81
2021/01/14 00:35:37;;;;;;;;;;;;;;;5.64;71.35;99778.41;4963392;28;19922;-84
2021/01/14 00:38:04;;;;;;;;;;;;;;;5.49;72.04;99775.59;4953127;28;19993;-87
2021/01/14 00:40:32;;;;;;;;;;;;;;;5.74;71.37;99776.81;4934400;28;19926;-84
2021/01/14 00:43:00;;;;;;;;;;;;;;;5.55;71.72;99772.25;4936506;28;19922;-87
2021/01/14 00:45:27;;;;;;;;;;;;;;;5.59;71.58;99769.69;4950384;28;19922;-85
2021/01/14 00:47:53;;;;;;;;;;;;;;;5.25;72.70;99770.06;4977509;28;19929;-88
2021/01/14 00:50:21;;;;;;;;;;;;;;;5.58;71.79;99772.25;4959492;28;19922;-86
2021/01/14 00:52:49;;;;;;;;;;;;;;;5.46;72.28;99773.00;4957594;28;19921;-86
2021/01/14 00:55:16;;;;;;;;;;;;;;;5.48;71.68;99776.44;4968658;28;20033;-86
2021/01/14 00:57:43;;;;;;;;;;;;;;;5.62;71.73;99774.03;4989388;28;19930;-86
2021/01/14 01:00:11;;;;;;;;;;;;;;;5.43;72.42;99764.28;4985580;28;19968;-84
2021/01/14 01:02:42;;;;;;;;;;;;;;;5.38;72.40;99766.81;4970998;28;19930;-85
2021/01/14 01:05:09;;;;;;;;;;;;;;;5.39;72.61;99757.31;4968584;28;19929;-87
2021/01/14 01:07:35;;;;;;;;;;;;;;;5.33;72.47;99745.13;4953114;28;19930;-84
2021/01/14 01:10:03;;;;;;;;;;;;;;;5.31;72.81;99746.84;4967030;28;19933;-84
2021/01/14 01:12:29;;;;;;;;;;;;;;;5.17;72.58;99757.03;4960946;28;20369;-86
2021/01/14 01:14:56;;;;;;;;;;;;;;;5.58;71.85;99743.75;4937689;28;19928;-87
2021/01/14 01:17:22;;;;;;;;;;;;;;;5.60;72.07;99730.00;4969388;28;19922;-85
2021/01/14 01:19:48;;;;;;;;;;;;;;;5.68;72.05;99730.06;4983231;28;19952;-86
2021/01/14 01:22:19;;;;;;;;;;;;;;;5.15;72.83;99739.69;4991609;28;20019;-87
2021/01/14 01:24:45;;;;;;;;;;;;;;;5.09;73.38;99731.81;4985852;28;19948;-86
2021/01/14 01:27:13;;;;;;;;;;;;;;;5.01;73.35;99728.25;4987127;28;20643;-86
2021/01/14 01:29:40;;;;;;;;;;;;;;;5.35;73.01;99729.63;4949026;28;20053;-87
2021/01/14 01:32:06;;;;;;;;;;;;;;;5.30;72.88;99726.97;4986639;28;19922;-85
2021/01/14 01:34:32;;;;;;;;;;;;;;;5.46;72.52;99728.06;4972901;28;20095;-86
2021/01/14 01:36:58;;;;;;;;;;;;;;;5.20;73.44;99727.69;4969586;28;19932;-88
2021/01/14 01:39:25;;;;;;;;;;;;;;;5.51;72.36;99716.91;4974929;28;20000;-86
2021/01/14 01:41:57;;;;;;;;;;;;;;;5.47;72.81;99728.06;4985022;28;20020;-85
2021/01/14 01:44:25;;;;;;;;;;;;;;;5.17;73.58;99725.94;4982541;28;19925;-86
2021/01/14 01:46:55;;;;;;;;;;;;;;;5.08;73.91;99722.34;4970623;28;19922;-86
2021/01/14 01:49:23;;;;;;;;;;;;;;;5.69;72.20;99726.63;4993376;28;19973;-87
2021/01/14 01:51:51;;;;;;;;;;;;;;;5.77;71.89;99734.50;4945240;28;19990;-87
2021/01/14 01:54:18;;;;;;;;;;;;;;;5.71;72.02;99725.78;4973645;28;19964;-85
2021/01/14 01:56:49;;;;;;;;;;;;;;;5.56;72.46;99732.53;4985916;28;19984;-87
2021/01/14 01:59:18;;;;;;;;;;;;;;;5.58;72.29;99728.22;4972730;28;19961;-87
2021/01/14 02:01:46;;;;;;;;;;;;;;;5.42;72.45;99729.72;4958715;28;19953;-87
2021/01/14 02:04:12;;;;;;;;;;;;;;;5.70;72.08;99728.38;4951471;28;19928;-86
2021/01/14 02:06:57;;;;;;;;;;;;;;;5.62;72.21;99730.00;4971698;28;20389;-87
2021/01/14 02:09:25;;;;;;;;;;;;;;;5.50;72.58;99730.72;4969860;28;19940;-86
2021/01/14 02:11:57;;;;;;;;;;;;;;;5.78;71.80;99728.47;4969980;28;19925;-85
2021/01/14 02:14:26;;;;;;;;;;;;;;;5.43;72.47;99725.41;4984146;28;20387;-87
2021/01/14 02:16:53;;;;;;;;;;;;;;;5.53;72.84;99727.28;4940289;28;19988;-86
2021/01/14 02:19:32;;;;;;;;;;;;;;;5.44;72.61;99728.03;4985363;28;19922;-86
2021/01/14 02:22:16;;;;;;;;;;;;;;;5.60;72.22;99722.22;4985874;28;19989;-86
2021/01/14 02:24:49;;;;;;;;;;;;;;;5.44;72.55;99720.25;4969770;28;20393;-86
2021/01/14 02:27:16;;;;;;;;;;;;;;;5.17;73.48;99722.47;4970465;28;20361;-87
2021/01/14 02:29:44;;;;;;;;;;;;;;;5.05;74.25;99719.69;4984190;28;19922;-86
2021/01/14 02:32:15;;;;;;;;;;;;;;;5.35;73.38;99717.56;4995319;28;19925;-82
2021/01/14 02:34:41;;;;;;;;;;;;;;;5.14;73.57;99710.34;4992670;28;19952;-87
2021/01/14 02:37:08;;;;;;;;;;;;;;;5.26;73.87;99718.31;4966231;28;19965;-87
2021/01/14 02:39:38;;;;;;;;;;;;;;;5.26;73.68;99713.13;4965943;28;19961;-86
2021/01/14 02:42:05;;;;;;;;;;;;;;;5.32;73.34;99709.75;4988045;28;19944;-86
2021/01/14 02:44:33;;;;;;;;;;;;;;;5.60;72.82;99705.78;4967282;28;19922;-81
2021/01/14 02:47:02;;;;;;;;;;;;;;;5.67;72.42;99694.63;4990404;28;19996;-85
2021/01/14 02:49:31;;;;;;;;;;;;;;;5.68;72.16;99704.16;4980310;28;19928;-86
2021/01/14 02:52:00;;;;;;;;;;;;;;;5.29;73.27;99696.75;4989131;28;19976;-86
2021/01/14 02:54:27;;;;;;;;;;;;;;;5.24;73.70;99699.25;4964113;28;19944;-86
2021/01/14 02:56:53;;;;;;;;;;;;;;;5.37;73.41;99687.34;4970294;28;19961;-87
2021/01/14 02:59:19;;;;;;;;;;;;;;;5.22;74.07;99688.03;4992090;28;20202;-88
2021/01/14 03:01:46;;;;;;;;;;;;;;;5.33;73.40;99688.16;4980284;28;20379;-86
2021/01/14 03:04:12;;;;;;;;;;;;;;;5.64;72.65;99692.03;4975127;28;19932;-84
2021/01/14 03:06:39;;;;;;;;;;;;;;;5.51;73.28;99685.81;4985536;28;19922;-87
2021/01/14 03:09:05;;;;;;;;;;;;;;;5.58;73.03;99690.22;4978209;28;19926;-85
2021/01/14 03:11:33;;;;;;;;;;;;;;;5.47;73.53;99689.19;4976822;28;19929;-83
2021/01/14 03:13:59;;;;;;;;;;;;;;;5.46;73.12;99686.63;4992002;28;19944;-85
2021/01/14 03:16:26;;;;;;;;;;;;;;;5.17;74.12;99688.81;4969967;28;19929;-80
2021/01/14 03:18:53;;;;;;;;;;;;;;;5.53;72.68;99680.63;4961197;28;19925;-84
2021/01/14 03:21:19;;;;;;;;;;;;;;;6.03;71.83;99686.44;4989133;28;19944;-86
2021/01/14 03:23:46;;;;;;;;;;;;;;;5.89;71.89;99682.84;4988187;28;20514;-86
2021/01/14 03:26:13;;;;;;;;;;;;;;;5.52;72.61;99678.91;4972784;28;19929;-86
2021/01/14 03:28:40;;;;;;;;;;;;;;;5.48;72.41;99685.78;4973224;28;20113;-85
2021/01/14 03:31:06;;;;;;;;;;;;;;;5.31;72.96;99684.69;4985916;28;19925;-85
2021/01/14 03:33:32;;;;;;;;;;;;;;;5.45;72.57;99680.56;4992208;28;20259;-85
2021/01/14 03:35:59;;;;;;;;;;;;;;;5.83;72.35;99678.41;4990961;28;19922;-87
2021/01/14 03:38:25;;;;;;;;;;;;;;;5.54;72.62;99672.03;4974554;28;19928;-85
2021/01/14 03:40:51;;;;;;;;;;;;;;;4.94;74.10;99685.03;4955820;28;19928;-85
2021/01/14 03:43:17;;;;;;;;;;;;;;;5.62;72.64;99686.81;4978167;28;20293;-85
2021/01/14 03:45:44;;;;;;;;;;;;;;;5.35;72.99;99675.22;4957059;28;20020;-85
2021/01/14 03:48:10;;;;;;;;;;;;;;;4.74;74.33;99677.84;4980357;28;19930;-86
2021/01/14 03:50:37;;;;;;;;;;;;;;;5.33;73.26;99672.63;4961663;28;20448;-85
2021/01/14 03:53:03;;;;;;;;;;;;;;;5.32;72.76;99676.06;4986940;28;19985;-83
2021/01/14 03:55:30;;;;;;;;;;;;;;;5.48;72.89;99665.03;4976708;28;20048;-87
2021/01/14 03:57:57;;;;;;;;;;;;;;;5.26;72.84;99676.00;4974579;28;19940;-82
2021/01/14 04:00:23;;;;;;;;;;;;;;;5.55;72.75;99666.00;4988638;28;19976;-84
2021/01/14 04:02:50;;;;;;;;;;;;;;;5.24;73.15;99665.59;4970871;28;19922;-86
2021/01/14 04:05:16;;;;;;;;;;;;;;;5.42;72.50;99667.53;4997091;28;20014;-86
2021/01/14 04:07:42;;;;;;;;;;;;;;;5.38;72.67;99668.38;4972220;28;19921;-83
2021/01/14 04:10:09;;;;;;;;;;;;;;;5.17;73.23;99665.50;4972530;28;20001;-87
2021/01/14 04:12:36;;;;;;;;;;;;;;;5.29;73.04;99665.66;4967733;28;19926;-85
2021/01/14 04:15:05;;;;;;;;;;;;;;;5.32;72.67;99670.03;4977870;28;19926;-85
2021/01/14 04:17:31;;;;;;;;;;;;;;;5.25;72.86;99667.34;4969969;28;19953;-86
2021/01/14 04:19:59;;;;;;;;;;;;;;;5.58;71.91;99666.03;4992139;28;20300;-86
2021/01/14 04:22:25;;;;;;;;;;;;;;;5.26;73.03;99656.16;4985420;28;19929;-86
2021/01/14 04:24:51;;;;;;;;;;;;;;;5.58;71.97;99658.25;4956175;28;20021;-85
2021/01/14 04:27:17;;;;;;;;;;;;;;;5.36;72.42;99658.84;4968761;28;19948;-83
2021/01/14 04:29:43;;;;;;;;;;;;;;;5.05;73.35;99645.47;4987106;28;20352;-85
2021/01/14 04:32:09;;;;;;;;;;;;;;;5.41;72.69;99644.22;4978845;28;20272;-84
2021/01/14 04:34:37;;;;;;;;;;;;;;;5.05;73.80;99642.88;4987768;28;19932;-85
2021/01/14 04:37:03;;;;;;;;;;;;;;;4.86;74.42;99640.03;4979798;28;19922;-84
2021/01/14 04:39:29;;;;;;;;;;;;;;;5.27;73.48;99649.25;4975453;28;19929;-86
2021/01/14 04:41:58;;;;;;;;;;;;;;;5.20;73.15;99650.88;4990692;28;19922;-84
2021/01/14 04:44:25;;;;;;;;;;;;;;;5.25;72.65;99649.22;4988395;28;19976;-86
2021/01/14 04:46:59;;;;;;;;;;;;;;;5.08;73.87;99639.50;4973412;28;19929;-86
2021/01/14 04:49:25;;;;;;;;;;;;;;;5.48;73.06;99641.72;4964046;28;19965;-86
2021/01/14 04:51:58;;;;;;;;;;;;;;;5.33;73.33;99636.34;4986307;28;19936;-86
2021/01/14 04:54:31;;;;;;;;;;;;;;;4.90;75.23;99639.22;4974038;28;19922;-86
2021/01/14 04:57:02;;;;;;;;;;;;;;;5.16;73.51;99640.47;4990151;28;19925;-84
2021/01/14 04:59:32;;;;;;;;;;;;;;;5.32;73.23;99639.81;4988700;28;19964;-85
2021/01/14 05:01:58;;;;;;;;;;;;;;;5.18;74.05;99639.59;4984804;28;20289;-84
2021/01/14 05:04:28;;;;;;;;;;;;;;;5.18;73.78;99642.19;4987304;28;19953;-83
2021/01/14 05:06:58;;;;;;;;;;;;;;;5.44;73.62;99639.94;4970472;28;19925;-85
2021/01/14 05:09:26;;;;;;;;;;;;;;;5.31;73.49;99643.25;4966386;28;19951;-84
2021/01/14 05:11:57;;;;;;;;;;;;;;;5.15;74.07;99639.59;4989849;28;20388;-84
2021/01/14 05:14:26;;;;;;;;;;;;;;;5.25;74.05;99632.81;4968128;28;20348;-81
2021/01/14 05:16:52;;;;;;;;;;;;;;;5.29;73.73;99637.16;4974404;28;19937;-85
2021/01/14 05:19:18;;;;;;;;;;;;;;;5.35;73.10;99636.38;4986675;28;19952;-82
2021/01/14 05:21:45;;;;;;;;;;;;;;;5.02;74.35;99636.81;4962269;28;20243;-84
2021/01/14 05:24:13;;;;;;;;;;;;;;;5.06;74.44;99629.09;4988036;28;19922;-86
2021/01/14 05:26:41;;;;;;;;;;;;;;;5.37;73.66;99630.34;4983323;28;19968;-82
2021/01/14 05:29:11;;;;;;;;;;;;;;;5.24;74.13;99631.94;4987684;28;19926;-84
2021/01/14 05:31:37;;;;;;;;;;;;;;;5.22;73.84;99633.66;4987591;28;20056;-85
2021/01/14 05:34:03;;;;;;;;;;;;;;;5.27;74.23;99623.34;4988718;28;19922;-85
2021/01/14 05:36:48;;;;;;;;;;;;;;;5.36;73.48;99627.75;4984606;28;20092;-86
2021/01/14 05:39:15;;;;;;;;;;;;;;;4.92;74.94;99622.88;4972809;28;20021;-85
2021/01/14 05:41:41;;;;;;;;;;;;;;;4.86;75.71;99627.09;4968396;28;19930;-85
2021/01/14 05:44:08;;;;;;;;;;;;;;;5.05;74.90;99624.78;4978264;28;20035;-85
2021/01/14 05:46:34;;;;;;;;;;;;;;;5.03;75.15;99629.06;4971727;28;20285;-86
2021/01/14 05:49:02;;;;;;;;;;;;;;;5.42;74.09;99625.25;4958763;28;19925;-84
2021/01/14 05:51:29;;;;;;;;;;;;;;;5.09;74.88;99626.53;4987323;28;19926;-85
2021/01/14 05:54:05;;;;;;;;;;;;;;;5.02;75.51;99622.16;4974010;28;20020;-85
2021/01/14 05:56:52;;;;;;;;;;;;;;;5.46;74.17;99621.84;4949574;28;19925;-85
2021/01/14 05:59:19;;;;;;;;;;;;;;;5.38;74.33;99620.84;4990066;28;20008;-85
2021/01/14 06:01:59;;;;;;;;;;;;;;;5.04;75.39;99612.66;4986346;28;24503;-85
2021/01/14 06:04:27;;;;;;;;;;;;;;;5.16;74.77;99601.63;4994221;28;19933;-82
2021/01/14 06:06:54;;;;;;;;;;;;;;;5.08;74.99;99609.28;4951271;28;19936;-85
2021/01/14 06:09:21;;;;;;;;;;;;;;;5.12;75.41;99605.88;4953068;28;19926;-85
2021/01/14 06:11:48;;;;;;;;;;;;;;;5.11;75.88;99603.28;4982679;28;19932;-85
2021/01/14 06:14:33;;;;;;;;;;;;;;;5.09;75.45;99598.06;4955572;28;19929;-85
2021/01/14 06:17:03;;;;;;;;;;;;;;;5.56;73.96;99596.03;4969395;28;20316;-84
2021/01/14 06:19:30;;;;;;;;;;;;;;;5.51;74.22;99602.03;4977916;28;19941;-86
2021/01/14 06:21:57;;;;;;;;;;;;;;;5.27;74.15;99600.88;4990986;28;19965;-84
2021/01/14 06:24:27;;;;;;;;;;;;;;;5.29;74.98;99603.50;4985839;28;19928;-85
2021/01/14 06:26:55;;;;;;;;;;;;;;;5.33;74.67;99601.81;4982560;28;19989;-84
2021/01/14 06:29:25;;;;;;;;;;;;;;;6.04;72.56;99595.69;4989171;28;20035;-85
2021/01/14 06:32:04;;;;;;;;;;;;;;;5.18;74.77;99597.34;4988104;28;19936;-85
2021/01/14 06:34:31;;;;;;;;;;;;;;;5.04;74.80;99599.72;4985106;28;20016;-86
2021/01/14 06:37:08;;;;;;;;;;;;;;;5.21;74.84;99600.81;4968877;28;20219;-86
2021/01/14 06:39:45;;;;;;;;;;;;;;;5.25;74.68;99596.53;4955965;28;19945;-83
2021/01/14 06:42:20;;;;;;;;;;;;;;;5.46;73.55;99609.75;4984022;28;19922;-82
2021/01/14 06:44:51;;;;;;;;;;;;;;;5.58;73.15;99601.25;4967900;28;20040;-85
2021/01/14 06:47:31;;;;;;;;;;;;;;;4.99;74.38;99598.78;4956673;28;19933;-85
2021/01/14 06:50:08;;;;;;;;;;;;;;;5.42;73.01;99604.53;4970831;28;19992;-86
2021/01/14 06:52:41;;;;;;;;;;;;;;;5.22;74.61;99607.75;4971348;28;19921;-84
2021/01/14 06:55:07;;;;;;;;;;;;;;;5.23;73.30;99603.41;4978876;28;20278;-86
2021/01/14 06:57:35;;;;;;;;;;;;;;;5.74;72.22;99610.06;4987939;28;20339;-85
2021/01/14 07:00:05;;;;;;;;;;;;;;;5.16;74.43;99611.97;4988132;28;19925;-85
2021/01/14 07:02:34;;;;;;;;;;;;;;;5.15;74.32;99612.81;4989217;28;19931;-85
2021/01/14 07:05:01;;;;;;;;;;;;;;;5.16;74.36;99615.44;4973374;28;19933;-86
2021/01/14 07:07:27;;;;;;;;;;;;;;;5.08;74.25;99617.06;4990877;28;19948;-85
2021/01/14 07:10:05;;;;;;;;;;;;;;;5.07;74.70;99617.03;4972107;28;19921;-86
2021/01/14 07:12:36;;;;;;;;;;;;;;;5.44;73.20;99620.94;4986140;28;20390;-85
2021/01/14 07:15:07;;;;;;;;;;;;;;;5.17;74.19;99626.66;4972592;28;19922;-85
2021/01/14 07:17:36;;;;;;;;;;;;;;;5.00;73.47;99623.84;4981485;28;20380;-86
2021/01/14 07:20:05;;;;;;;;;;;;;;;4.91;74.68;99617.66;4966153;28;20025;-85
2021/01/14 07:22:33;;;;;;;;;;;;;;;5.01;73.87;99612.63;4972358;28;20443;-85
2021/01/14 07:25:01;;;;;;;;;;;;;;;4.77;74.31;99627.81;4960392;28;19929;-86
2021/01/14 07:27:28;;;;;;;;;;;;;;;4.63;74.13;99622.44;4982280;28;19929;-86
2021/01/14 07:29:55;;;;;;;;;;;;;;;4.99;73.68;99616.91;4982984;28;19944;-85
2021/01/14 07:32:41;;;;;;;;;;;;;;;5.31;71.88;99624.25;4972337;28;20372;-85
2021/01/14 07:35:29;;;;;;;;;;;;;;;4.55;74.06;99618.88;4986218;28;19936;-84
2021/01/14 07:37:56;;;;;;;;;;;;;;;4.70;73.35;99626.00;4964721;28;19925;-83
2021/01/14 07:40:32;;;;;;;;;;;;;;;4.56;73.64;99627.50;4967313;28;20373;-85
2021/01/14 07:43:02;;;;;;;;;;;;;;;4.59;74.00;99625.84;4993189;28;19944;-84
2021/01/14 07:45:31;;;;;;;;;;;;;;;4.41;73.75;99632.44;4957904;28;20296;-83
2021/01/14 07:48:17;;;;;;;;;;;;;;;4.34;73.94;99639.22;4957768;28;20357;-83
2021/01/14 07:50:57;;;;;;;;;;;;;;;3.86;74.96;99637.53;4985626;28;19925;-84
2021/01/14 07:53:25;;;;;;;;;;;;;;;4.20;74.70;99643.31;4994553;28;19938;-84
2021/01/14 07:55:52;;;;;;;;;;;;;;;4.31;73.92;99641.78;4968560;28;19949;-84
2021/01/14 07:58:20;;;;;;;;;;;;;;;3.94;74.98;99654.03;4973997;28;19968;-85
2021/01/14 08:01:06;;;;;;;;;;;;;;;4.17;73.81;99653.59;4984590;28;20254;-84
2021/01/14 08:03:35;;;;;;;;;;;;;;;4.03;74.15;99655.91;4970214;28;19937;-85
2021/01/14 08:06:17;;;;;;;;;;;;;;;4.32;73.50;99649.53;4986392;28;19929;-84
2021/01/14 08:09:02;;;;;;;;;;;;;;;4.03;74.28;99655.91;4988922;28;20294;-85
2021/01/14 08:11:35;;;;;;;;;;;;;;;4.15;73.89;99660.44;4971636;28;19929;-83
2021/01/14 08:14:03;;;;;;;;;;;;;;;4.11;73.89;99662.13;4996445;28;20108;-84
2021/01/14 08:16:33;;;;;;;;;;;;;;;3.56;74.96;99664.47;4989047;28;19926;-84
2021/01/14 08:19:15;;;;;;;;;;;;;;;4.02;73.49;99658.50;4988053;28;20475;-84
2021/01/14 08:22:01;;;;;;;;;;;;;;;4.24;72.91;99653.72;4983289;28;19926;-82
2021/01/14 08:24:47;;;;;;;;;;;;;;;4.09;72.95;99655.16;4979686;28;19929;-83
2021/01/14 08:27:32;;;;;;;;;;;;;;;4.09;73.61;99658.63;5001603;28;20016;-82
2021/01/14 08:29:59;;;;;;;;;;;;;;;4.12;73.64;99662.97;4973911;28;19922;-81
2021/01/14 08:32:36;;;;;;;;;;;;;;;3.93;74.47;99659.19;4982868;28;20742;-82
2021/01/14 08:35:24;;;;;;;;;;;;;;;3.91;73.69;99671.22;4980104;28;19925;-82
2021/01/14 08:37:50;;;;;;;;;;;;;;;4.06;73.19;99663.75;4981965;28;19953;-80
2021/01/14 08:40:17;;;;;;;;;;;;;;;4.02;73.67;99669.72;4980948;28;19925;-81
2021/01/14 08:42:45;;;;;;;;;;;;;;;3.98;73.75;99667.03;4958676;28;19931;-83
2021/01/14 08:45:11;;;;;;;;;;;;;;;3.68;74.90;99662.16;4965108;28;20165;-83
2021/01/14 08:47:58;;;;;;;;;;;;;;;3.50;75.28;99678.16;4967113;28;20504;-81
2021/01/14 08:50:35;;;;;;;;;;;;;;;3.80;74.78;99671.00;4977114;28;20031;-81
2021/01/14 08:53:02;;;;;;;;;;;;;;;3.74;74.61;99676.03;4979879;28;19931;-80
2021/01/14 08:55:29;;;;;;;;;;;;;;;3.80;74.46;99676.16;4967946;28;19936;-80
2021/01/14 08:57:56;;;;;;;;;;;;;;;3.86;74.16;99681.47;4968478;28;20733;-80
2021/01/14 09:00:26;;;;;;;;;;;;;;;3.83;74.20;99688.28;4976139;28;19977;-80
2021/01/14 09:02:53;;;;;;;;;;;;;;;3.68;74.92;99685.41;4976230;28;19930;-83
2021/01/14 09:05:19;;;;;;;;;;;;;;;3.91;74.07;99689.31;4989685;28;19928;-80
2021/01/14 09:08:05;;;;;;;;;;;;;;;4.04;73.52;99698.16;4977091;28;19921;-83
2021/01/14 09:10:40;;;;;;;;;;;;;;;3.65;74.77;99690.50;4968015;28;19929;-85
2021/01/14 09:13:08;;;;;;;;;;;;;;;4.07;73.84;99698.22;4987834;28;20320;-82
2021/01/14 09:15:34;;;;;;;;;;;;;;;4.02;73.68;99702.44;4947277;28;19930;-83
2021/01/14 09:18:01;;;;;;;;;;;;;;;3.76;74.47;99701.91;4977302;28;19926;-84
2021/01/14 09:20:29;;;;;;;;;;;;;;;3.60;74.36;99712.81;4962714;28;19922;-81
2021/01/14 09:23:17;;;;;;;;;;;;;;;3.94;74.08;99710.91;4976911;28;19922;-80
2021/01/14 09:25:45;;;;;;;;;;;;;;;3.80;73.71;99720.09;4982533;28;19922;-84
2021/01/14 09:28:12;;;;;;;;;;;;;;;3.54;75.12;99720.41;4974653;28;20012;-83
2021/01/14 09:30:39;;;;;;;;;;;;;;;3.79;75.73;99717.50;4978535;28;19936;-82
2021/01/14 09:33:05;;;;;;;;;;;;;;;4.25;72.81;99721.81;4984714;28;19929;-79
2021/01/14 09:35:32;;;;;;;;;;;;;;;3.74;73.55;99717.38;4984326;28;19926;-81
2021/01/14 09:37:59;;;;;;;;;;;;;;;4.52;71.92;99731.78;4969314;28;19930;-84
2021/01/14 09:40:26;;;;;;;;;;;;;;;4.16;72.68;99732.00;4991789;28;19921;-84
2021/01/14 09:42:52;;;;;;;;;;;;;;;4.60;71.78;99744.00;4985732;28;20381;-85
2021/01/14 09:45:21;;;;;;;;;;;;;;;4.81;71.00;99738.31;4950393;28;19921;-85
2021/01/14 09:47:51;;;;;;;;;;;;;;;4.68;71.09;99751.91;4955501;28;19922;-83
2021/01/14 09:50:18;;;;;;;;;;;;;;;4.73;70.84;99753.72;4971963;28;19968;-84
2021/01/14 09:52:45;;;;;;;;;;;;;;;4.32;71.42;99760.72;4965975;28;19937;-84
2021/01/14 09:55:14;;;;;;;;;;;;;;;4.23;72.98;99765.75;4962757;28;19972;-82
2021/01/14 09:57:50;;;;;;;;;;;;;;;4.79;70.65;99771.06;4982353;28;20033;-82
2021/01/14 10:00:20;;;;;;;;;;;;;;;4.61;71.07;99776.78;4966841;28;20017;-83
2021/01/14 10:02:58;;;;;;;;;;;;;;;4.65;71.26;99780.31;4967879;28;19929;-83
2021/01/14 10:05:25;;;;;;;;;;;;;;;4.81;70.72;99778.00;4986398;28;19921;-82
2021/01/14 10:07:54;;;;;;;;;;;;;;;5.07;69.35;99783.63;4986084;28;19930;-83
2021/01/14 10:10:27;;;;;;;;;;;;;;;4.93;69.68;99794.59;4989332;28;19922;-82
2021/01/14 10:12:55;;;;;;;;;;;;;;;5.19;68.89;99798.44;4979329;28;19960;-82
2021/01/14 10:15:21;;;;;;;;;;;;;;;5.27;69.33;99802.91;4985924;28;19957;-82
2021/01/14 10:17:47;;;;;;;;;;;;;;;5.23;68.56;99805.41;4963552;28;19925;-82
2021/01/14 10:20:14;;;;;;;;;;;;;;;5.46;68.65;99818.75;4969383;28;19972;-83
2021/01/14 10:22:53;;;;;;;;;;;;;;;5.18;68.79;99826.06;4966954;28;19921;-83
2021/01/14 10:25:20;;;;;;;;;;;;;;;4.96;69.29;99830.88;4938889;28;19922;-83
2021/01/14 10:28:00;;;;;;;;;;;;;;;5.41;68.83;99829.03;4930479;28;19930;-84
2021/01/14 10:30:27;;;;;;;;;;;;;;;5.61;67.95;99839.72;4988005;28;19933;-83
2021/01/14 10:33:05;;;;;;;;;;;;;;;5.60;68.01;99841.41;4968267;28;19925;-86
2021/01/14 10:35:32;;;;;;;;;;;;;;;5.94;67.18;99840.22;4966147;28;20404;-86
2021/01/14 10:38:10;;;;;;;;;;;;;;;5.82;67.25;99845.19;4981627;28;20267;-84
2021/01/14 10:40:56;;;;;;;;;;;;;;;5.86;67.26;99851.25;4975475;28;19991;-85
2021/01/14 10:43:34;;;;;;;;;;;;;;;5.66;67.71;99858.75;4952495;28;20587;-84
2021/01/14 10:46:03;;;;;;;;;;;;;;;5.71;67.51;99863.16;4952407;28;19938;-85
2021/01/14 10:48:37;;;;;;;;;;;;;;;6.17;66.69;99865.56;4981489;28;20392;-84
2021/01/14 10:51:04;;;;;;;;;;;;;;;5.41;68.01;99872.22;4985010;28;19921;-83
2021/01/14 10:53:31;;;;;;;;;;;;;;;5.96;66.83;99877.38;4951749;28;19932;-83
2021/01/14 10:56:02;;;;;;;;;;;;;;;6.10;66.54;99880.16;4974208;28;19922;-85
2021/01/14 10:58:35;;;;;;;;;;;;;;;5.89;66.62;99888.53;4959525;28;19922;-84
2021/01/14 11:01:03;;;;;;;;;;;;;;;6.15;66.13;99888.88;4970272;28;19930;-87
2021/01/14 11:03:41;;;;;;;;;;;;;;;5.36;67.91;99895.44;4971165;28;19926;-86
2021/01/14 11:06:08;;;;;;;;;;;;;;;6.14;66.18;99895.78;4981366;28;20403;-83
2021/01/14 11:08:38;;;;;;;;;;;;;;;6.27;65.19;99890.78;4967999;28;20245;-81
2021/01/14 11:11:05;;;;;;;;;;;;;;;5.61;66.03;99899.31;4971811;28;19981;-84
2021/01/14 11:13:38;;;;;;;;;;;;;;;6.18;65.76;99901.91;4978895;28;19940;-84
2021/01/14 11:16:06;;;;;;;;;;;;;;;5.87;66.63;99913.56;4968105;28;19932;-88
2021/01/14 11:18:36;;;;;;;;;;;;;;;6.22;65.91;99911.47;4965930;28;19961;-87
2021/01/14 11:21:03;;;;;;;;;;;;;;;6.45;64.58;99916.94;4982429;28;19941;-87
2021/01/14 11:23:30;;;;;;;;;;;;;;;6.41;64.76;99915.16;4963336;28;19929;-87
2021/01/14 11:25:56;;;;;;;;;;;;;;;6.20;65.06;99922.66;4975623;28;20297;-86
2021/01/14 11:28:22;;;;;;;;;;;;;;;6.51;64.48;99924.81;4986827;28;19933;-85
2021/01/14 11:30:49;;;;;;;;;;;;;;;6.67;64.18;99924.13;4967392;28;20377;-85
2021/01/14 11:33:15;;;;;;;;;;;;;;;6.36;64.52;99933.28;4973557;28;20020;-85
2021/01/14 11:35:42;;;;;;;;;;;;;;;6.63;64.11;99934.47;4967891;28;19929;-85
2021/01/14 11:38:08;;;;;;;;;;;;;;;6.49;64.48;99937.75;4956048;28;20369;-85
2021/01/14 11:40:34;;;;;;;;;;;;;;;6.51;63.93;99941.28;4984047;28;19921;-85
2021/01/14 11:43:01;;;;;;;;;;;;;;;6.43;64.00;99948.06;4989580;28;20025;-85
2021/01/14 11:45:28;;;;;;;;;;;;;;;6.28;64.67;99945.28;4969621;28;19956;-85
2021/01/14 11:47:54;;;;;;;;;;;;;;;6.19;65.03;99955.50;4990465;28;19921;-89
2021/01/14 11:50:21;;;;;;;;;;;;;;;6.57;63.91;99954.28;4954479;28;19980;-85
2021/01/14 11:52:48;;;;;;;;;;;;;;;6.64;63.42;99959.56;4984448;28;20281;-84
2021/01/14 11:55:15;;;;;;;;;;;;;;;6.48;64.03;99958.50;4967673;28;20230;-84
2021/01/14 11:57:41;;;;;;;;;;;;;;;6.60;63.97;99966.47;4969556;28;19957;-85
2021/01/14 12:00:08;;;;;;;;;;;;;;;6.78;63.25;99960.63;4969760;28;20366;-84
2021/01/14 12:02:34;;;;;;;;;;;;;;;5.63;66.05;99964.97;4969983;28;19956;-85
2021/01/14 12:05:00;;;;;;;;;;;;;;;6.23;64.99;99975.47;4965602;28;19926;-85
2021/01/14 12:07:27;;;;;;;;;;;;;;;6.41;64.43;99969.66;4982583;28;20017;-85
2021/01/14 12:09:53;;;;;;;;;;;;;;;6.78;63.75;99966.69;4982234;28;19930;-86
2021/01/14 12:12:19;;;;;;;;;;;;;;;6.18;64.66;99987.50;4969493;28;19950;-85
2021/01/14 12:14:46;;;;;;;;;;;;;;;5.89;64.50;99987.06;4989088;28;19922;-84
2021/01/14 12:17:13;;;;;;;;;;;;;;;5.68;65.38;99984.06;4973296;28;19934;-84
2021/01/14 12:19:40;;;;;;;;;;;;;;;5.65;66.09;99989.22;4953905;28;20272;-82
2021/01/14 12:22:07;;;;;;;;;;;;;;;5.33;67.63;99996.41;4987324;28;20435;-83
2021/01/14 12:24:33;;;;;;;;;;;;;;;5.08;68.36;99995.09;4962709;28;19922;-84
2021/01/14 12:27:01;;;;;;;;;;;;;;;5.03;68.25;99996.72;4972108;28;19921;-84
2021/01/14 12:29:29;;;;;;;;;;;;;;;5.04;69.13;99993.25;4950564;28;20416;-84
2021/01/14 12:31:57;;;;;;;;;;;;;;;4.69;69.25;99992.59;4981364;28;19926;-82
2021/01/14 12:34:27;;;;;;;;;;;;;;;5.08;68.66;99994.22;4965602;28;20016;-82
2021/01/14 12:36:54;;;;;;;;;;;;;;;5.38;67.87;99994.78;4976095;28;19929;-83
2021/01/14 12:39:21;;;;;;;;;;;;;;;5.37;67.81;99994.75;4962299;28;20024;-83
2021/01/14 12:41:48;;;;;;;;;;;;;;;5.30;67.79;99996.34;4944143;28;20365;-82
2021/01/14 12:44:14;;;;;;;;;;;;;;;4.66;70.05;100000.25;4947967;28;20016;-82
2021/01/14 12:46:46;;;;;;;;;;;;;;;5.24;67.91;99999.72;4959200;28;19926;-83
2021/01/14 12:49:14;;;;;;;;;;;;;;;4.82;69.21;100001.47;4979244;28;20302;-82
2021/01/14 12:51:42;;;;;;;;;;;;;;;4.88;68.77;100004.19;4951231;28;19932;-84
2021/01/14 12:54:09;;;;;;;;;;;;;;;4.89;69.38;100011.13;4983800;28;19953;-82
2021/01/14 12:56:37;;;;;;;;;;;;;;;5.41;67.57;100015.56;4960885;28;20022;-83
2021/01/14 12:59:05;;;;;;;;;;;;;;;5.62;67.09;100010.75;4986280;28;19984;-82
2021/01/14 13:01:33;;;;;;;;;;;;;;;5.28;67.55;100016.16;4947691;28;19925;-83
2021/01/14 13:04:01;;;;;;;;;;;;;;;5.58;67.06;100016.72;4981281;28;19980;-82
2021/01/14 13:06:29;;;;;;;;;;;;;;;5.06;67.91;100016.59;4976272;28;19929;-85
2021/01/14 13:08:57;;;;;;;;;;;;;;;4.97;68.51;100019.91;4948501;28;20305;-84